sensor_id;sensor_type;location;lat;lon;timestamp;P1;durP1;ratioP1;P2;durP2;ratioP2
8488;SDS011;4281;45.772;12.852;2023-08-30T00:01:55;2.80;;;2.60;;
8488;SDS011;4281;45.772;12.852;2023-08-30T00:04:23;3.03;;;2.73;;
8488;SDS011;4281;45.772;12.852;2023-08-30T00:06:51;3.03;;;2.73;;
8488;SDS011;4281;45.772;12.852;2023-08-30T00:09:20;2.70;;;2.50;;
8488;SDS011;4281;45.772;12.852;2023-08-30T00:11:48;2.43;;;2.20;;
8488;SDS011;4281;45.772;12.852;2023-08-30T00:14:16;2.30;;;2.10;;
8488;SDS011;4281;45.772;12.852;2023-08-30T00:16:45;3.23;;;2.40;;
8488;SDS011;4281;45.772;12.852;2023-08-30T00:19:13;2.63;;;2.17;;
8488;SDS011;4281;45.772;12.852;2023-08-30T00:21:41;3.07;;;2.33;;
8488;SDS011;4281;45.772;12.852;2023-08-30T00:24:09;2.57;;;2.10;;
8488;SDS011;4281;45.772;12.852;2023-08-30T00:26:38;3.30;;;1.93;;
8488;SDS011;4281;45.772;12.852;2023-08-30T00:29:06;2.87;;;2.40;;
8488;SDS011;4281;45.772;12.852;2023-08-30T00:31:34;2.80;;;2.07;;
8488;SDS011;4281;45.772;12.852;2023-08-30T00:34:02;2.60;;;2.00;;
8488;SDS011;4281;45.772;12.852;2023-08-30T00:36:30;4.37;;;2.13;;
8488;SDS011;4281;45.772;12.852;2023-08-30T00:38:58;3.30;;;2.00;;
8488;SDS011;4281;45.772;12.852;2023-08-30T00:41:26;2.93;;;2.10;;
8488;SDS011;4281;45.772;12.852;2023-08-30T00:43:55;2.00;;;1.80;;
8488;SDS011;4281;45.772;12.852;2023-08-30T00:46:23;2.53;;;2.13;;
8488;SDS011;4281;45.772;12.852;2023-08-30T00:48:51;2.30;;;1.90;;
8488;SDS011;4281;45.772;12.852;2023-08-30T00:51:19;2.50;;;2.10;;
8488;SDS011;4281;45.772;12.852;2023-08-30T00:53:48;3.20;;;1.80;;
8488;SDS011;4281;45.772;12.852;2023-08-30T00:56:16;2.73;;;2.00;;
8488;SDS011;4281;45.772;12.852;2023-08-30T00:58:45;2.87;;;1.90;;
8488;SDS011;4281;45.772;12.852;2023-08-30T01:01:14;2.40;;;1.70;;
8488;SDS011;4281;45.772;12.852;2023-08-30T01:03:42;1.83;;;1.70;;
8488;SDS011;4281;45.772;12.852;2023-08-30T01:06:10;2.67;;;1.90;;
8488;SDS011;4281;45.772;12.852;2023-08-30T01:08:40;1.67;;;1.57;;
8488;SDS011;4281;45.772;12.852;2023-08-30T01:11:10;2.60;;;1.50;;
8488;SDS011;4281;45.772;12.852;2023-08-30T01:13:40;1.90;;;1.70;;
8488;SDS011;4281;45.772;12.852;2023-08-30T01:16:10;1.37;;;1.27;;
8488;SDS011;4281;45.772;12.852;2023-08-30T01:18:40;1.60;;;1.30;;
8488;SDS011;4281;45.772;12.852;2023-08-30T01:21:09;2.03;;;1.30;;
8488;SDS011;4281;45.772;12.852;2023-08-30T01:23:46;1.63;;;1.40;;
8488;SDS011;4281;45.772;12.852;2023-08-30T01:26:23;1.77;;;1.60;;
8488;SDS011;4281;45.772;12.852;2023-08-30T01:28:55;2.70;;;1.43;;
8488;SDS011;4281;45.772;12.852;2023-08-30T01:31:25;2.37;;;1.50;;
8488;SDS011;4281;45.772;12.852;2023-08-30T01:33:54;3.13;;;1.53;;
8488;SDS011;4281;45.772;12.852;2023-08-30T01:36:23;2.00;;;1.40;;
8488;SDS011;4281;45.772;12.852;2023-08-30T01:38:51;2.23;;;1.27;;
8488;SDS011;4281;45.772;12.852;2023-08-30T01:41:19;2.33;;;1.40;;
8488;SDS011;4281;45.772;12.852;2023-08-30T01:43:49;1.40;;;1.20;;
8488;SDS011;4281;45.772;12.852;2023-08-30T01:46:20;1.87;;;1.37;;
8488;SDS011;4281;45.772;12.852;2023-08-30T01:48:49;1.57;;;1.23;;
8488;SDS011;4281;45.772;12.852;2023-08-30T01:51:17;1.60;;;1.10;;
8488;SDS011;4281;45.772;12.852;2023-08-30T01:53:45;1.30;;;1.20;;
8488;SDS011;4281;45.772;12.852;2023-08-30T01:56:13;1.60;;;1.10;;
8488;SDS011;4281;45.772;12.852;2023-08-30T01:58:41;2.33;;;1.10;;
8488;SDS011;4281;45.772;12.852;2023-08-30T02:01:09;1.93;;;1.20;;
8488;SDS011;4281;45.772;12.852;2023-08-30T02:03:39;2.23;;;1.10;;
8488;SDS011;4281;45.772;12.852;2023-08-30T02:06:08;1.47;;;1.37;;
8488;SDS011;4281;45.772;12.852;2023-08-30T02:08:41;2.23;;;1.30;;
8488;SDS011;4281;45.772;12.852;2023-08-30T02:11:23;2.70;;;1.20;;
8488;SDS011;4281;45.772;12.852;2023-08-30T02:13:54;2.43;;;1.47;;
8488;SDS011;4281;45.772;12.852;2023-08-30T02:16:25;2.33;;;1.40;;
8488;SDS011;4281;45.772;12.852;2023-08-30T02:18:54;1.50;;;1.20;;
8488;SDS011;4281;45.772;12.852;2023-08-30T02:21:23;1.67;;;1.27;;
8488;SDS011;4281;45.772;12.852;2023-08-30T02:23:51;2.60;;;1.40;;
8488;SDS011;4281;45.772;12.852;2023-08-30T02:26:19;2.43;;;1.17;;
8488;SDS011;4281;45.772;12.852;2023-08-30T02:28:47;1.57;;;1.23;;
8488;SDS011;4281;45.772;12.852;2023-08-30T02:31:15;1.70;;;1.33;;
8488;SDS011;4281;45.772;12.852;2023-08-30T02:33:43;2.57;;;1.27;;
8488;SDS011;4281;45.772;12.852;2023-08-30T02:36:12;2.40;;;1.20;;
8488;SDS011;4281;45.772;12.852;2023-08-30T02:38:40;4.03;;;1.40;;
8488;SDS011;4281;45.772;12.852;2023-08-30T02:41:08;1.83;;;1.20;;
8488;SDS011;4281;45.772;12.852;2023-08-30T02:43:36;1.97;;;1.20;;
8488;SDS011;4281;45.772;12.852;2023-08-30T02:46:04;2.27;;;1.30;;
8488;SDS011;4281;45.772;12.852;2023-08-30T02:48:32;4.37;;;1.40;;
8488;SDS011;4281;45.772;12.852;2023-08-30T02:51:00;2.23;;;1.30;;
8488;SDS011;4281;45.772;12.852;2023-08-30T02:53:30;1.50;;;1.40;;
8488;SDS011;4281;45.772;12.852;2023-08-30T02:55:58;1.97;;;1.40;;
8488;SDS011;4281;45.772;12.852;2023-08-30T02:58:25;3.97;;;1.40;;
8488;SDS011;4281;45.772;12.852;2023-08-30T03:00:53;2.00;;;1.33;;
8488;SDS011;4281;45.772;12.852;2023-08-30T03:03:21;1.73;;;1.30;;
8488;SDS011;4281;45.772;12.852;2023-08-30T03:05:49;2.00;;;1.30;;
8488;SDS011;4281;45.772;12.852;2023-08-30T03:08:17;2.40;;;1.80;;
8488;SDS011;4281;45.772;12.852;2023-08-30T03:10:46;2.53;;;1.50;;
8488;SDS011;4281;45.772;12.852;2023-08-30T03:13:14;2.07;;;1.53;;
8488;SDS011;4281;45.772;12.852;2023-08-30T03:15:42;1.83;;;1.40;;
8488;SDS011;4281;45.772;12.852;2023-08-30T03:18:10;3.27;;;1.60;;
8488;SDS011;4281;45.772;12.852;2023-08-30T03:20:38;2.40;;;1.50;;
8488;SDS011;4281;45.772;12.852;2023-08-30T03:23:06;2.30;;;1.43;;
8488;SDS011;4281;45.772;12.852;2023-08-30T03:25:34;3.33;;;1.60;;
8488;SDS011;4281;45.772;12.852;2023-08-30T03:28:03;1.83;;;1.40;;
8488;SDS011;4281;45.772;12.852;2023-08-30T03:30:33;2.47;;;1.23;;
8488;SDS011;4281;45.772;12.852;2023-08-30T03:33:01;1.53;;;1.33;;
8488;SDS011;4281;45.772;12.852;2023-08-30T03:35:29;1.50;;;1.30;;
8488;SDS011;4281;45.772;12.852;2023-08-30T03:38:01;2.70;;;1.13;;
8488;SDS011;4281;45.772;12.852;2023-08-30T03:40:29;1.67;;;1.20;;
8488;SDS011;4281;45.772;12.852;2023-08-30T03:42:57;2.47;;;1.40;;
8488;SDS011;4281;45.772;12.852;2023-08-30T03:45:26;1.90;;;1.40;;
8488;SDS011;4281;45.772;12.852;2023-08-30T03:47:54;1.87;;;1.67;;
8488;SDS011;4281;45.772;12.852;2023-08-30T03:50:22;3.93;;;1.43;;
8488;SDS011;4281;45.772;12.852;2023-08-30T03:52:50;2.03;;;1.40;;
8488;SDS011;4281;45.772;12.852;2023-08-30T03:55:17;1.73;;;1.20;;
8488;SDS011;4281;45.772;12.852;2023-08-30T03:57:45;2.33;;;1.33;;
8488;SDS011;4281;45.772;12.852;2023-08-30T04:00:13;1.60;;;1.10;;
8488;SDS011;4281;45.772;12.852;2023-08-30T04:02:43;1.80;;;1.13;;
8488;SDS011;4281;45.772;12.852;2023-08-30T04:05:11;2.07;;;1.27;;
8488;SDS011;4281;45.772;12.852;2023-08-30T04:07:39;1.63;;;1.20;;
8488;SDS011;4281;45.772;12.852;2023-08-30T04:10:08;1.43;;;1.00;;
8488;SDS011;4281;45.772;12.852;2023-08-30T04:12:36;1.40;;;1.30;;
8488;SDS011;4281;45.772;12.852;2023-08-30T04:15:04;1.30;;;1.10;;
8488;SDS011;4281;45.772;12.852;2023-08-30T04:17:32;1.50;;;1.17;;
8488;SDS011;4281;45.772;12.852;2023-08-30T04:20:02;1.33;;;1.10;;
8488;SDS011;4281;45.772;12.852;2023-08-30T04:22:30;2.30;;;1.30;;
8488;SDS011;4281;45.772;12.852;2023-08-30T04:25:01;2.03;;;1.13;;
8488;SDS011;4281;45.772;12.852;2023-08-30T04:27:29;1.77;;;1.20;;
8488;SDS011;4281;45.772;12.852;2023-08-30T04:29:57;1.83;;;1.50;;
8488;SDS011;4281;45.772;12.852;2023-08-30T04:32:25;1.50;;;1.30;;
8488;SDS011;4281;45.772;12.852;2023-08-30T04:34:53;1.57;;;1.27;;
8488;SDS011;4281;45.772;12.852;2023-08-30T04:37:22;1.77;;;1.10;;
8488;SDS011;4281;45.772;12.852;2023-08-30T04:39:50;4.13;;;1.43;;
8488;SDS011;4281;45.772;12.852;2023-08-30T04:42:18;2.30;;;1.50;;
8488;SDS011;4281;45.772;12.852;2023-08-30T04:44:46;1.40;;;1.30;;
8488;SDS011;4281;45.772;12.852;2023-08-30T04:47:14;1.83;;;1.17;;
8488;SDS011;4281;45.772;12.852;2023-08-30T04:49:42;1.43;;;1.30;;
8488;SDS011;4281;45.772;12.852;2023-08-30T04:52:10;1.43;;;1.30;;
8488;SDS011;4281;45.772;12.852;2023-08-30T04:54:39;2.03;;;1.30;;
8488;SDS011;4281;45.772;12.852;2023-08-30T04:57:08;3.60;;;1.43;;
8488;SDS011;4281;45.772;12.852;2023-08-30T04:59:35;1.87;;;1.50;;
8488;SDS011;4281;45.772;12.852;2023-08-30T05:02:04;3.37;;;1.50;;
8488;SDS011;4281;45.772;12.852;2023-08-30T05:04:32;1.50;;;1.20;;
8488;SDS011;4281;45.772;12.852;2023-08-30T05:07:00;1.53;;;1.20;;
8488;SDS011;4281;45.772;12.852;2023-08-30T05:09:29;3.60;;;1.60;;
8488;SDS011;4281;45.772;12.852;2023-08-30T05:11:58;1.53;;;1.37;;
8488;SDS011;4281;45.772;12.852;2023-08-30T05:14:26;1.27;;;1.17;;
8488;SDS011;4281;45.772;12.852;2023-08-30T05:16:54;2.90;;;1.30;;
8488;SDS011;4281;45.772;12.852;2023-08-30T05:19:22;1.73;;;1.00;;
8488;SDS011;4281;45.772;12.852;2023-08-30T05:21:50;1.40;;;1.23;;
8488;SDS011;4281;45.772;12.852;2023-08-30T05:24:21;1.40;;;1.00;;
8488;SDS011;4281;45.772;12.852;2023-08-30T05:26:49;1.13;;;1.03;;
8488;SDS011;4281;45.772;12.852;2023-08-30T05:29:18;3.07;;;1.30;;
8488;SDS011;4281;45.772;12.852;2023-08-30T05:31:46;2.10;;;1.20;;
8488;SDS011;4281;45.772;12.852;2023-08-30T05:34:14;1.20;;;1.10;;
8488;SDS011;4281;45.772;12.852;2023-08-30T05:36:42;1.67;;;1.30;;
8488;SDS011;4281;45.772;12.852;2023-08-30T05:39:10;2.20;;;1.20;;
8488;SDS011;4281;45.772;12.852;2023-08-30T05:41:38;1.67;;;1.00;;
8488;SDS011;4281;45.772;12.852;2023-08-30T05:44:06;1.40;;;1.10;;
8488;SDS011;4281;45.772;12.852;2023-08-30T05:46:36;1.17;;;1.10;;
8488;SDS011;4281;45.772;12.852;2023-08-30T05:49:04;1.97;;;1.10;;
8488;SDS011;4281;45.772;12.852;2023-08-30T05:51:32;1.37;;;1.00;;
8488;SDS011;4281;45.772;12.852;2023-08-30T05:54:00;1.27;;;1.17;;
8488;SDS011;4281;45.772;12.852;2023-08-30T05:56:28;1.50;;;0.90;;
8488;SDS011;4281;45.772;12.852;2023-08-30T05:58:56;1.00;;;0.80;;
8488;SDS011;4281;45.772;12.852;2023-08-30T06:01:24;2.77;;;1.03;;
8488;SDS011;4281;45.772;12.852;2023-08-30T06:03:54;1.00;;;0.90;;
8488;SDS011;4281;45.772;12.852;2023-08-30T06:06:22;1.47;;;0.90;;
8488;SDS011;4281;45.772;12.852;2023-08-30T06:08:49;2.00;;;1.10;;
8488;SDS011;4281;45.772;12.852;2023-08-30T06:11:17;1.10;;;1.00;;
8488;SDS011;4281;45.772;12.852;2023-08-30T06:13:45;1.47;;;0.80;;
8488;SDS011;4281;45.772;12.852;2023-08-30T06:16:13;0.83;;;0.83;;
8488;SDS011;4281;45.772;12.852;2023-08-30T06:18:41;6.57;;;0.97;;
8488;SDS011;4281;45.772;12.852;2023-08-30T06:21:10;1.30;;;1.00;;
8488;SDS011;4281;45.772;12.852;2023-08-30T06:23:38;1.10;;;0.90;;
8488;SDS011;4281;45.772;12.852;2023-08-30T06:26:06;1.80;;;1.00;;
8488;SDS011;4281;45.772;12.852;2023-08-30T06:28:34;1.57;;;0.97;;
8488;SDS011;4281;45.772;12.852;2023-08-30T06:31:04;1.03;;;0.80;;
8488;SDS011;4281;45.772;12.852;2023-08-30T06:33:32;1.23;;;0.77;;
8488;SDS011;4281;45.772;12.852;2023-08-30T06:36:00;1.90;;;0.90;;
8488;SDS011;4281;45.772;12.852;2023-08-30T06:38:29;1.10;;;0.87;;
8488;SDS011;4281;45.772;12.852;2023-08-30T06:40:57;1.03;;;0.80;;
8488;SDS011;4281;45.772;12.852;2023-08-30T06:43:25;1.40;;;1.00;;
8488;SDS011;4281;45.772;12.852;2023-08-30T06:45:53;0.83;;;0.83;;
8488;SDS011;4281;45.772;12.852;2023-08-30T06:48:21;1.07;;;0.73;;
8488;SDS011;4281;45.772;12.852;2023-08-30T06:50:49;0.90;;;0.70;;
8488;SDS011;4281;45.772;12.852;2023-08-30T06:53:16;0.97;;;0.77;;
8488;SDS011;4281;45.772;12.852;2023-08-30T06:55:46;1.50;;;0.70;;
8488;SDS011;4281;45.772;12.852;2023-08-30T06:58:14;1.63;;;0.77;;
8488;SDS011;4281;45.772;12.852;2023-08-30T07:00:42;1.27;;;0.83;;
8488;SDS011;4281;45.772;12.852;2023-08-30T07:03:09;1.13;;;0.80;;
8488;SDS011;4281;45.772;12.852;2023-08-30T07:05:38;1.97;;;0.80;;
8488;SDS011;4281;45.772;12.852;2023-08-30T07:08:05;1.47;;;0.67;;
8488;SDS011;4281;45.772;12.852;2023-08-30T07:10:34;0.90;;;0.80;;
8488;SDS011;4281;45.772;12.852;2023-08-30T07:13:03;1.07;;;0.60;;
8488;SDS011;4281;45.772;12.852;2023-08-30T07:15:36;1.17;;;0.80;;
8488;SDS011;4281;45.772;12.852;2023-08-30T07:18:05;1.13;;;0.80;;
8488;SDS011;4281;45.772;12.852;2023-08-30T07:20:33;1.27;;;0.90;;
8488;SDS011;4281;45.772;12.852;2023-08-30T07:23:03;1.70;;;0.90;;
8488;SDS011;4281;45.772;12.852;2023-08-30T07:25:33;1.60;;;0.80;;
8488;SDS011;4281;45.772;12.852;2023-08-30T07:28:04;0.87;;;0.87;;
8488;SDS011;4281;45.772;12.852;2023-08-30T07:30:33;0.80;;;0.80;;
8488;SDS011;4281;45.772;12.852;2023-08-30T07:33:02;1.00;;;0.70;;
8488;SDS011;4281;45.772;12.852;2023-08-30T07:35:31;0.73;;;0.73;;
8488;SDS011;4281;45.772;12.852;2023-08-30T07:37:59;0.60;;;0.60;;
8488;SDS011;4281;45.772;12.852;2023-08-30T07:40:27;0.73;;;0.73;;
8488;SDS011;4281;45.772;12.852;2023-08-30T07:42:55;0.70;;;0.57;;
8488;SDS011;4281;45.772;12.852;2023-08-30T07:45:31;0.63;;;0.63;;
8488;SDS011;4281;45.772;12.852;2023-08-30T07:47:58;2.30;;;0.63;;
8488;SDS011;4281;45.772;12.852;2023-08-30T07:50:26;0.70;;;0.70;;
8488;SDS011;4281;45.772;12.852;2023-08-30T07:52:54;0.77;;;0.70;;
8488;SDS011;4281;45.772;12.852;2023-08-30T07:55:22;0.80;;;0.80;;
8488;SDS011;4281;45.772;12.852;2023-08-30T07:57:50;1.50;;;0.83;;
8488;SDS011;4281;45.772;12.852;2023-08-30T08:00:18;0.70;;;0.70;;
8488;SDS011;4281;45.772;12.852;2023-08-30T08:02:47;0.60;;;0.60;;
8488;SDS011;4281;45.772;12.852;2023-08-30T08:05:15;0.50;;;0.50;;
8488;SDS011;4281;45.772;12.852;2023-08-30T08:07:43;0.50;;;0.50;;
8488;SDS011;4281;45.772;12.852;2023-08-30T08:10:11;0.70;;;0.50;;
8488;SDS011;4281;45.772;12.852;2023-08-30T08:12:39;0.60;;;0.60;;
8488;SDS011;4281;45.772;12.852;2023-08-30T08:15:07;1.50;;;0.60;;
8488;SDS011;4281;45.772;12.852;2023-08-30T08:17:36;0.60;;;0.60;;
8488;SDS011;4281;45.772;12.852;2023-08-30T08:20:06;0.80;;;0.67;;
8488;SDS011;4281;45.772;12.852;2023-08-30T08:22:34;0.43;;;0.43;;
8488;SDS011;4281;45.772;12.852;2023-08-30T08:25:02;0.80;;;0.60;;
8488;SDS011;4281;45.772;12.852;2023-08-30T08:27:30;0.50;;;0.50;;
8488;SDS011;4281;45.772;12.852;2023-08-30T08:29:58;0.60;;;0.60;;
8488;SDS011;4281;45.772;12.852;2023-08-30T08:32:26;0.77;;;0.60;;
8488;SDS011;4281;45.772;12.852;2023-08-30T08:34:54;0.50;;;0.50;;
8488;SDS011;4281;45.772;12.852;2023-08-30T08:37:25;0.50;;;0.50;;
8488;SDS011;4281;45.772;12.852;2023-08-30T08:39:53;0.47;;;0.47;;
8488;SDS011;4281;45.772;12.852;2023-08-30T08:42:20;0.40;;;0.40;;
8488;SDS011;4281;45.772;12.852;2023-08-30T08:44:50;0.77;;;0.77;;
8488;SDS011;4281;45.772;12.852;2023-08-30T08:47:19;0.70;;;0.70;;
8488;SDS011;4281;45.772;12.852;2023-08-30T08:49:47;1.23;;;0.70;;
8488;SDS011;4281;45.772;12.852;2023-08-30T08:52:16;1.60;;;0.73;;
8488;SDS011;4281;45.772;12.852;2023-08-30T08:54:58;1.53;;;0.60;;
8488;SDS011;4281;45.772;12.852;2023-08-30T08:57:28;0.70;;;0.60;;
8488;SDS011;4281;45.772;12.852;2023-08-30T08:59:57;1.20;;;0.70;;
8488;SDS011;4281;45.772;12.852;2023-08-30T09:02:26;0.77;;;0.50;;
8488;SDS011;4281;45.772;12.852;2023-08-30T09:04:55;0.83;;;0.83;;
8488;SDS011;4281;45.772;12.852;2023-08-30T09:07:25;0.60;;;0.60;;
8488;SDS011;4281;45.772;12.852;2023-08-30T09:09:54;0.80;;;0.63;;
8488;SDS011;4281;45.772;12.852;2023-08-30T09:12:24;0.60;;;0.60;;
8488;SDS011;4281;45.772;12.852;2023-08-30T09:14:52;0.63;;;0.63;;
8488;SDS011;4281;45.772;12.852;2023-08-30T09:17:21;0.60;;;0.60;;
8488;SDS011;4281;45.772;12.852;2023-08-30T09:19:49;0.60;;;0.60;;
8488;SDS011;4281;45.772;12.852;2023-08-30T09:22:17;1.10;;;0.80;;
8488;SDS011;4281;45.772;12.852;2023-08-30T09:24:45;0.60;;;0.60;;
8488;SDS011;4281;45.772;12.852;2023-08-30T09:27:13;1.43;;;0.80;;
8488;SDS011;4281;45.772;12.852;2023-08-30T09:29:42;1.03;;;0.90;;
8488;SDS011;4281;45.772;12.852;2023-08-30T09:32:12;0.70;;;0.70;;
8488;SDS011;4281;45.772;12.852;2023-08-30T09:34:45;1.43;;;0.63;;
8488;SDS011;4281;45.772;12.852;2023-08-30T09:37:20;2.20;;;0.80;;
8488;SDS011;4281;45.772;12.852;2023-08-30T09:39:49;0.60;;;0.60;;
8488;SDS011;4281;45.772;12.852;2023-08-30T09:42:17;0.73;;;0.60;;
8488;SDS011;4281;45.772;12.852;2023-08-30T09:44:46;1.13;;;1.03;;
8488;SDS011;4281;45.772;12.852;2023-08-30T09:47:15;1.00;;;0.90;;
8488;SDS011;4281;45.772;12.852;2023-08-30T09:49:44;0.80;;;0.80;;
8488;SDS011;4281;45.772;12.852;2023-08-30T09:52:14;1.17;;;0.90;;
8488;SDS011;4281;45.772;12.852;2023-08-30T09:54:43;2.00;;;1.00;;
8488;SDS011;4281;45.772;12.852;2023-08-30T09:57:12;0.70;;;0.70;;
8488;SDS011;4281;45.772;12.852;2023-08-30T09:59:41;0.90;;;0.80;;
8488;SDS011;4281;45.772;12.852;2023-08-30T10:02:11;1.10;;;0.80;;
8488;SDS011;4281;45.772;12.852;2023-08-30T10:04:39;0.80;;;0.80;;
8488;SDS011;4281;45.772;12.852;2023-08-30T10:07:08;1.40;;;0.80;;
8488;SDS011;4281;45.772;12.852;2023-08-30T10:09:36;0.83;;;0.70;;
8488;SDS011;4281;45.772;12.852;2023-08-30T10:12:17;1.63;;;1.00;;
8488;SDS011;4281;45.772;12.852;2023-08-30T10:14:48;1.50;;;0.80;;
8488;SDS011;4281;45.772;12.852;2023-08-30T10:17:18;0.80;;;0.80;;
8488;SDS011;4281;45.772;12.852;2023-08-30T10:19:46;1.40;;;0.90;;
8488;SDS011;4281;45.772;12.852;2023-08-30T10:22:14;0.70;;;0.70;;
8488;SDS011;4281;45.772;12.852;2023-08-30T10:24:44;1.23;;;0.70;;
8488;SDS011;4281;45.772;12.852;2023-08-30T10:27:34;1.50;;;0.90;;
8488;SDS011;4281;45.772;12.852;2023-08-30T10:30:03;0.70;;;0.70;;
8488;SDS011;4281;45.772;12.852;2023-08-30T10:32:39;1.60;;;0.80;;
8488;SDS011;4281;45.772;12.852;2023-08-30T10:35:10;0.70;;;0.70;;
8488;SDS011;4281;45.772;12.852;2023-08-30T10:37:38;0.90;;;0.80;;
8488;SDS011;4281;45.772;12.852;2023-08-30T10:40:06;1.27;;;0.90;;
8488;SDS011;4281;45.772;12.852;2023-08-30T10:42:35;0.83;;;0.80;;
8488;SDS011;4281;45.772;12.852;2023-08-30T10:45:04;1.10;;;1.00;;
8488;SDS011;4281;45.772;12.852;2023-08-30T10:47:36;0.90;;;0.90;;
8488;SDS011;4281;45.772;12.852;2023-08-30T10:50:10;1.57;;;0.70;;
8488;SDS011;4281;45.772;12.852;2023-08-30T10:52:39;0.67;;;0.67;;
8488;SDS011;4281;45.772;12.852;2023-08-30T10:55:08;1.00;;;0.90;;
8488;SDS011;4281;45.772;12.852;2023-08-30T10:57:36;2.60;;;0.83;;
8488;SDS011;4281;45.772;12.852;2023-08-30T11:00:05;0.80;;;0.70;;
8488;SDS011;4281;45.772;12.852;2023-08-30T11:02:36;0.77;;;0.70;;
8488;SDS011;4281;45.772;12.852;2023-08-30T11:05:05;0.43;;;0.43;;
8488;SDS011;4281;45.772;12.852;2023-08-30T11:07:36;1.40;;;0.67;;
8488;SDS011;4281;45.772;12.852;2023-08-30T11:10:04;0.70;;;0.67;;
8488;SDS011;4281;45.772;12.852;2023-08-30T11:12:33;0.60;;;0.60;;
8488;SDS011;4281;45.772;12.852;2023-08-30T11:15:02;0.70;;;0.70;;
8488;SDS011;4281;45.772;12.852;2023-08-30T11:17:31;1.00;;;0.70;;
8488;SDS011;4281;45.772;12.852;2023-08-30T11:20:05;0.60;;;0.60;;
8488;SDS011;4281;45.772;12.852;2023-08-30T11:22:36;0.90;;;0.67;;
8488;SDS011;4281;45.772;12.852;2023-08-30T11:25:04;0.70;;;0.60;;
8488;SDS011;4281;45.772;12.852;2023-08-30T11:27:33;0.93;;;0.50;;
8488;SDS011;4281;45.772;12.852;2023-08-30T11:30:01;0.70;;;0.60;;
8488;SDS011;4281;45.772;12.852;2023-08-30T11:32:32;1.17;;;0.67;;
8488;SDS011;4281;45.772;12.852;2023-08-30T11:35:01;0.60;;;0.60;;
8488;SDS011;4281;45.772;12.852;2023-08-30T11:37:29;0.67;;;0.67;;
8488;SDS011;4281;45.772;12.852;2023-08-30T11:39:58;0.90;;;0.60;;
8488;SDS011;4281;45.772;12.852;2023-08-30T11:42:28;1.10;;;0.80;;
8488;SDS011;4281;45.772;12.852;2023-08-30T11:44:58;0.70;;;0.63;;
8488;SDS011;4281;45.772;12.852;2023-08-30T11:47:26;0.77;;;0.67;;
8488;SDS011;4281;45.772;12.852;2023-08-30T11:49:55;0.80;;;0.80;;
8488;SDS011;4281;45.772;12.852;2023-08-30T11:52:24;0.70;;;0.63;;
8488;SDS011;4281;45.772;12.852;2023-08-30T11:54:52;0.70;;;0.70;;
8488;SDS011;4281;45.772;12.852;2023-08-30T11:57:22;0.70;;;0.70;;
8488;SDS011;4281;45.772;12.852;2023-08-30T11:59:52;0.77;;;0.50;;
8488;SDS011;4281;45.772;12.852;2023-08-30T12:02:20;1.13;;;0.80;;
8488;SDS011;4281;45.772;12.852;2023-08-30T12:04:49;1.10;;;0.70;;
8488;SDS011;4281;45.772;12.852;2023-08-30T12:07:22;1.13;;;0.70;;
8488;SDS011;4281;45.772;12.852;2023-08-30T12:09:51;0.73;;;0.60;;
8488;SDS011;4281;45.772;12.852;2023-08-30T12:12:19;0.60;;;0.60;;
8488;SDS011;4281;45.772;12.852;2023-08-30T12:14:56;1.10;;;0.67;;
8488;SDS011;4281;45.772;12.852;2023-08-30T12:17:24;0.60;;;0.60;;
8488;SDS011;4281;45.772;12.852;2023-08-30T12:19:55;0.90;;;0.60;;
8488;SDS011;4281;45.772;12.852;2023-08-30T12:22:23;0.83;;;0.70;;
8488;SDS011;4281;45.772;12.852;2023-08-30T12:24:51;0.50;;;0.50;;
8488;SDS011;4281;45.772;12.852;2023-08-30T12:27:19;0.60;;;0.60;;
8488;SDS011;4281;45.772;12.852;2023-08-30T12:29:48;0.73;;;0.63;;
8488;SDS011;4281;45.772;12.852;2023-08-30T12:32:17;0.80;;;0.80;;
8488;SDS011;4281;45.772;12.852;2023-08-30T12:34:46;0.87;;;0.70;;
8488;SDS011;4281;45.772;12.852;2023-08-30T12:37:14;0.93;;;0.90;;
8488;SDS011;4281;45.772;12.852;2023-08-30T12:39:42;1.23;;;0.77;;
8488;SDS011;4281;45.772;12.852;2023-08-30T12:42:10;0.63;;;0.63;;
8488;SDS011;4281;45.772;12.852;2023-08-30T12:44:38;0.63;;;0.60;;
8488;SDS011;4281;45.772;12.852;2023-08-30T12:47:07;2.13;;;0.70;;
8488;SDS011;4281;45.772;12.852;2023-08-30T12:49:35;0.77;;;0.77;;
8488;SDS011;4281;45.772;12.852;2023-08-30T12:52:03;0.80;;;0.60;;
8488;SDS011;4281;45.772;12.852;2023-08-30T12:54:31;2.03;;;1.90;;
8488;SDS011;4281;45.772;12.852;2023-08-30T12:56:59;9.77;;;8.97;;
8488;SDS011;4281;45.772;12.852;2023-08-30T12:59:27;7.20;;;6.60;;
8488;SDS011;4281;45.772;12.852;2023-08-30T13:01:55;4.40;;;4.00;;
8488;SDS011;4281;45.772;12.852;2023-08-30T13:04:24;4.70;;;3.03;;
8488;SDS011;4281;45.772;12.852;2023-08-30T13:06:52;1.90;;;1.80;;
8488;SDS011;4281;45.772;12.852;2023-08-30T13:09:20;1.50;;;1.40;;
8488;SDS011;4281;45.772;12.852;2023-08-30T13:11:48;0.90;;;0.90;;
8488;SDS011;4281;45.772;12.852;2023-08-30T13:14:16;1.03;;;0.93;;
8488;SDS011;4281;45.772;12.852;2023-08-30T13:16:44;0.70;;;0.70;;
8488;SDS011;4281;45.772;12.852;2023-08-30T13:19:12;0.83;;;0.70;;
8488;SDS011;4281;45.772;12.852;2023-08-30T13:21:41;1.57;;;0.70;;
8488;SDS011;4281;45.772;12.852;2023-08-30T13:24:10;0.50;;;0.50;;
8488;SDS011;4281;45.772;12.852;2023-08-30T13:26:38;0.60;;;0.50;;
8488;SDS011;4281;45.772;12.852;2023-08-30T13:29:06;0.60;;;0.60;;
8488;SDS011;4281;45.772;12.852;2023-08-30T13:31:34;0.83;;;0.50;;
8488;SDS011;4281;45.772;12.852;2023-08-30T13:34:03;2.23;;;0.83;;
8488;SDS011;4281;45.772;12.852;2023-08-30T13:36:31;0.87;;;0.70;;
8488;SDS011;4281;45.772;12.852;2023-08-30T13:39:03;0.90;;;0.60;;
8488;SDS011;4281;45.772;12.852;2023-08-30T13:41:32;0.83;;;0.67;;
8488;SDS011;4281;45.772;12.852;2023-08-30T13:44:00;0.67;;;0.60;;
8488;SDS011;4281;45.772;12.852;2023-08-30T13:46:35;0.60;;;0.60;;
8488;SDS011;4281;45.772;12.852;2023-08-30T13:49:03;0.60;;;0.50;;
8488;SDS011;4281;45.772;12.852;2023-08-30T13:51:31;1.03;;;0.60;;
8488;SDS011;4281;45.772;12.852;2023-08-30T13:54:00;0.77;;;0.60;;
8488;SDS011;4281;45.772;12.852;2023-08-30T13:56:28;0.67;;;0.60;;
8488;SDS011;4281;45.772;12.852;2023-08-30T13:58:56;0.90;;;0.90;;
8488;SDS011;4281;45.772;12.852;2023-08-30T14:01:24;1.30;;;1.20;;
8488;SDS011;4281;45.772;12.852;2023-08-30T14:03:53;1.57;;;1.30;;
8488;SDS011;4281;45.772;12.852;2023-08-30T14:06:21;1.37;;;1.20;;
8488;SDS011;4281;45.772;12.852;2023-08-30T14:08:48;0.80;;;0.80;;
8488;SDS011;4281;45.772;12.852;2023-08-30T14:11:18;1.33;;;0.80;;
8488;SDS011;4281;45.772;12.852;2023-08-30T14:13:46;0.87;;;0.70;;
8488;SDS011;4281;45.772;12.852;2023-08-30T14:16:13;1.90;;;0.60;;
8488;SDS011;4281;45.772;12.852;2023-08-30T14:18:42;0.67;;;0.67;;
8488;SDS011;4281;45.772;12.852;2023-08-30T14:21:10;0.50;;;0.50;;
8488;SDS011;4281;45.772;12.852;2023-08-30T14:23:39;0.50;;;0.50;;
8488;SDS011;4281;45.772;12.852;2023-08-30T14:26:07;0.57;;;0.57;;
8488;SDS011;4281;45.772;12.852;2023-08-30T14:28:38;0.63;;;0.60;;
8488;SDS011;4281;45.772;12.852;2023-08-30T14:31:06;0.97;;;0.53;;
8488;SDS011;4281;45.772;12.852;2023-08-30T14:33:35;1.33;;;0.50;;
8488;SDS011;4281;45.772;12.852;2023-08-30T14:36:03;0.50;;;0.50;;
8488;SDS011;4281;45.772;12.852;2023-08-30T14:38:37;0.40;;;0.40;;
8488;SDS011;4281;45.772;12.852;2023-08-30T14:41:04;1.10;;;0.50;;
8488;SDS011;4281;45.772;12.852;2023-08-30T14:43:32;0.80;;;0.50;;
8488;SDS011;4281;45.772;12.852;2023-08-30T14:46:03;0.50;;;0.50;;
8488;SDS011;4281;45.772;12.852;2023-08-30T14:48:34;0.47;;;0.40;;
8488;SDS011;4281;45.772;12.852;2023-08-30T14:51:04;0.40;;;0.40;;
8488;SDS011;4281;45.772;12.852;2023-08-30T14:53:32;0.43;;;0.40;;
8488;SDS011;4281;45.772;12.852;2023-08-30T14:56:01;0.40;;;0.40;;
8488;SDS011;4281;45.772;12.852;2023-08-30T14:58:33;1.30;;;0.50;;
8488;SDS011;4281;45.772;12.852;2023-08-30T15:01:05;0.63;;;0.40;;
8488;SDS011;4281;45.772;12.852;2023-08-30T15:03:33;0.80;;;0.50;;
8488;SDS011;4281;45.772;12.852;2023-08-30T15:06:01;0.50;;;0.50;;
8488;SDS011;4281;45.772;12.852;2023-08-30T15:08:29;0.60;;;0.60;;
8488;SDS011;4281;45.772;12.852;2023-08-30T15:10:57;0.53;;;0.53;;